Time;durP1;ratioP1;P1;durP2;ratioP2;P2;SDS_P1;SDS_P2;PMS_P1;PMS_P2;Temp;Humidity;BMP_temperature;BMP_pressure;BME280_temperature;BME280_humidity;BME280_pressure;Samples;Min_cycle;Max_cycle;Signal;HPM_P1;HPM_P2
2022/06/15 00:00:21;;;;;;;;;;;;;;;18.87;nan;100570.16;4989480;28;20030;-73
2022/06/15 00:02:47;;;;;;;3.27;1.10;;;;;;;18.80;nan;100563.97;4989246;28;19916;-73
2022/06/15 00:05:12;;;;;;;1.55;0.90;;;;;;;18.86;nan;100565.84;4989399;28;20282;-72
2022/06/15 00:07:37;;;;;;;2.65;1.10;;;;;;;18.96;nan;100565.41;4989458;28;20065;-73
2022/06/15 00:10:03;;;;;;;3.80;1.30;;;;;;;19.09;nan;100554.69;4989128;28;20061;-73
2022/06/15 00:12:28;;;;;;;2.00;1.30;;;;;;;19.20;nan;100553.25;4988864;28;20270;-73
2022/06/15 00:14:55;;;;;;;3.38;1.20;;;;;;;19.29;nan;100554.69;4991101;28;20030;-73
2022/06/15 00:17:21;;;;;;;2.00;1.35;;;;;;;19.35;nan;100550.34;4997529;28;20038;-73
2022/06/15 00:19:46;;;;;;;3.17;1.30;;;;;;;19.39;nan;100549.72;4989456;28;19985;-73
2022/06/15 00:22:11;;;;;;;2.78;1.13;;;;;;;19.39;nan;100543.53;4989101;28;20149;-73
2022/06/15 00:24:37;;;;;;;1.52;1.00;;;;;;;19.31;nan;100544.59;4989409;28;20392;-73
2022/06/15 00:27:03;;;;;;;1.55;0.90;;;;;;;19.19;nan;100541.72;4989252;28;20034;-73
2022/06/15 00:29:30;;;;;;;1.42;0.82;;;;;;;19.03;nan;100548.31;4989642;28;20026;-73
2022/06/15 00:31:55;;;;;;;1.90;0.90;;;;;;;18.89;nan;100550.16;4988717;28;20480;-73
2022/06/15 00:34:20;;;;;;;2.10;0.90;;;;;;;18.75;nan;100544.97;4988581;28;20057;-73
2022/06/15 00:36:46;;;;;;;2.42;1.10;;;;;;;18.66;nan;100550.53;4995683;28;20030;-73
2022/06/15 00:39:11;;;;;;;2.03;1.07;;;;;;;18.77;nan;100546.44;4993594;28;20035;-72
2022/06/15 00:41:37;;;;;;;3.43;1.10;;;;;;;18.86;nan;100541.72;4993001;28;20786;-73
2022/06/15 00:44:21;;;;;;;2.15;1.30;;;;;;;18.88;nan;100535.13;5007542;28;20277;-72
2022/06/15 00:46:49;;;;;;;2.10;1.10;;;;;;;18.97;nan;100534.91;4992994;28;20034;-72
2022/06/15 00:49:37;;;;;;;1.70;1.05;;;;;;;19.07;nan;100535.34;4992601;28;20053;-73
2022/06/15 00:52:11;;;;;;;2.47;1.40;;;;;;;19.05;nan;100532.03;4992768;28;20454;-73
2022/06/15 00:54:37;;;;;;;2.55;1.25;;;;;;;19.08;nan;100523.56;4992237;28;20038;-72
2022/06/15 00:57:04;;;;;;;2.47;1.30;;;;;;;19.05;nan;100529.34;4992260;28;20041;-73
2022/06/15 00:59:34;;;;;;;1.80;1.20;;;;;;;19.07;nan;100519.25;4992964;28;20035;-73
2022/06/15 01:01:59;;;;;;;1.60;1.05;;;;;;;19.05;nan;100524.00;4992256;28;20128;-73
2022/06/15 01:04:36;;;;;;;1.83;1.20;;;;;;;19.04;nan;100516.97;4991545;28;20121;-72
2022/06/15 01:07:14;;;;;;;2.30;1.10;;;;;;;19.00;nan;100518.44;5000236;28;20502;-72
2022/06/15 01:09:54;;;;;;;4.30;1.50;;;;;;;18.92;nan;100514.09;4992390;28;20045;-72
2022/06/15 01:12:29;;;;;;;6.53;3.42;;;;;;;18.92;nan;100511.41;4991344;28;20414;-73
2022/06/15 01:15:06;;;;;;;10.52;4.43;;;;;;;18.82;nan;100508.31;5001979;28;20037;-73
2022/06/15 01:17:56;;;;;;;16.38;6.10;;;;;;;18.81;nan;100514.72;4994771;28;20058;-72
2022/06/15 01:20:50;;;;;;;12.20;5.10;;;;;;;18.67;nan;100503.97;4991486;28;20061;-73
2022/06/15 01:23:58;;;;;;;9.05;3.35;;;;;;;18.60;nan;100507.69;4991986;28;20670;-72
2022/06/15 01:27:01;;;;;;;4.32;2.08;;;;;;;18.60;nan;100503.13;4947467;28;20402;-72
2022/06/15 01:30:04;;;;;;;4.57;1.70;;;;;;;18.58;nan;100493.66;5000176;28;20026;-72
2022/06/15 01:32:46;;;;;;;2.53;1.50;;;;;;;18.57;nan;100495.53;4991182;28;20060;-73
2022/06/15 01:35:22;;;;;;;2.40;1.35;;;;;;;18.53;nan;100490.78;4991987;28;20034;-73
2022/06/15 01:37:56;;;;;;;3.05;1.38;;;;;;;18.42;nan;100486.84;4999510;28;20039;-73
2022/06/15 01:40:38;;;;;;;2.42;1.30;;;;;;;18.23;nan;100483.09;4991246;28;20085;-73
2022/06/15 01:43:13;;;;;;;2.30;1.40;;;;;;;18.10;nan;100491.94;4997929;28;20092;-73
2022/06/15 01:45:41;;;;;;;1.55;1.08;;;;;;;18.00;nan;100489.66;4991718;28;20062;-73
2022/06/15 01:48:10;;;;;;;2.40;1.20;;;;;;;17.94;nan;100493.13;4990650;28;20034;-72
2022/06/15 01:50:41;;;;;;;1.90;1.20;;;;;;;17.83;nan;100491.88;4991779;28;20026;-72
2022/06/15 01:53:16;;;;;;;3.03;1.30;;;;;;;17.76;nan;100493.66;4991034;28;20045;-73
2022/06/15 01:55:47;;;;;;;2.53;1.40;;;;;;;17.72;nan;100484.38;4991641;28;20034;-72
2022/06/15 01:58:16;;;;;;;8.25;3.38;;;;;;;17.79;nan;100492.44;4990855;28;20491;-73
2022/06/15 02:00:53;;;;;;;4.63;1.98;;;;;;;18.10;nan;100488.44;4991795;28;20037;-72
2022/06/15 02:03:40;;;;;;;3.38;1.85;;;;;;;18.21;nan;100488.69;4991109;28;20081;-72
2022/06/15 02:06:25;;;;;;;4.18;2.20;;;;;;;18.34;nan;100497.75;4989985;28;20038;-73
2022/06/15 02:09:01;;;;;;;5.07;2.58;;;;;;;18.25;nan;100502.47;4990710;28;20062;-73
2022/06/15 02:11:32;;;;;;;4.80;2.50;;;;;;;18.11;nan;100498.09;4991326;28;20033;-73
2022/06/15 02:14:03;;;;;;;5.65;2.45;;;;;;;17.96;nan;100493.75;4990732;28;20047;-73
2022/06/15 02:17:15;;;;;;;6.80;3.28;;;;;;;17.82;nan;100494.72;4979870;28;20040;-72
2022/06/15 02:19:47;;;;;;;;;;;;;;;17.70;nan;100502.47;4997170;28;20046;-72
2022/06/15 02:22:17;;;;;;;8.45;3.65;;;;;;;17.64;nan;100500.59;4990024;28;19917;-73
2022/06/15 02:24:46;;;;;;;7.15;3.10;;;;;;;17.56;nan;100493.56;4991011;28;20141;-73
2022/06/15 02:27:13;;;;;;;6.75;2.78;;;;;;;17.46;nan;100498.44;4999256;28;20243;-73
2022/06/15 02:29:41;;;;;;;5.38;2.10;;;;;;;17.36;nan;100490.78;4991046;28;20065;-72
2022/06/15 02:32:11;;;;;;;3.88;1.70;;;;;;;17.32;nan;100494.88;4990414;28;20027;-73
2022/06/15 02:34:37;;;;;;;4.00;1.92;;;;;;;17.30;nan;100480.03;4990770;28;20244;-73
2022/06/15 02:37:04;;;;;;;3.17;1.63;;;;;;;17.31;nan;100482.53;4998362;28;20033;-72
2022/06/15 02:39:30;;;;;;;2.67;1.40;;;;;;;17.39;nan;100481.53;4991031;28;20376;-72
2022/06/15 02:41:59;;;;;;;;;;;;;;;17.33;nan;100490.38;4991207;28;20110;-72
2022/06/15 02:44:27;;;;;;;2.47;1.50;;;;;;;17.27;nan;100488.47;5003833;28;19914;-73
2022/06/15 02:46:55;;;;;;;2.13;1.10;;;;;;;17.17;nan;100481.63;4990898;28;20490;-72
2022/06/15 02:49:21;;;;;;;2.28;1.23;;;;;;;17.10;nan;100485.28;4990730;28;20027;-72
2022/06/15 02:51:54;;;;;;;2.67;1.15;;;;;;;16.99;nan;100489.31;4990387;28;20037;-73
2022/06/15 02:54:23;;;;;;;1.83;1.20;;;;;;;16.89;nan;100491.50;4972245;28;20089;-73
2022/06/15 02:56:49;;;;;;;1.80;1.20;;;;;;;16.77;nan;100489.31;4997390;28;20113;-72
2022/06/15 02:59:14;;;;;;;2.50;1.33;;;;;;;16.70;nan;100491.09;4991457;28;20046;-72
2022/06/15 03:01:40;;;;;;;2.88;1.58;;;;;;;16.64;nan;100491.06;4995270;28;20100;-72
2022/06/15 03:04:05;;;;;;;1.70;1.17;;;;;;;16.74;nan;100491.56;4990014;28;20414;-73
2022/06/15 03:06:30;;;;;;;2.45;1.17;;;;;;;16.64;nan;100491.06;4989781;28;20084;-73
2022/06/15 03:08:57;;;;;;;3.03;1.38;;;;;;;16.57;nan;100493.69;4989948;28;20039;-73
2022/06/15 03:11:24;;;;;;;2.30;1.60;;;;;;;16.58;nan;100491.84;4981884;28;20256;-73
2022/06/15 03:13:51;;;;;;;2.90;1.60;;;;;;;16.55;nan;100496.53;4997929;28;20034;-72
2022/06/15 03:16:16;;;;;;;2.88;2.00;;;;;;;16.48;nan;100497.50;4994224;28;20556;-73
2022/06/15 03:18:42;;;;;;;3.42;1.83;;;;;;;16.39;nan;100495.97;4995597;28;20121;-73
2022/06/15 03:21:07;;;;;;;1.80;1.40;;;;;;;16.41;nan;100501.94;4989110;28;20390;-73
2022/06/15 03:23:32;;;;;;;1.87;1.10;;;;;;;16.38;nan;100500.47;4988859;28;20453;-72
2022/06/15 03:26:00;;;;;;;1.40;1.00;;;;;;;16.31;nan;100503.09;4988918;28;20421;-72
2022/06/15 03:28:25;;;;;;;2.92;1.60;;;;;;;16.10;nan;100503.88;4993513;28;20126;-72
2022/06/15 03:30:51;;;;;;;3.13;1.80;;;;;;;15.95;nan;100508.44;4994095;28;20121;-72
2022/06/15 03:33:17;;;;;;;3.63;1.77;;;;;;;15.84;nan;100503.56;4989661;28;20109;-72
2022/06/15 03:35:43;;;;;;;2.60;1.30;;;;;;;15.88;nan;100507.53;4988822;28;20403;-72
2022/06/15 03:38:09;;;;;;;2.00;1.30;;;;;;;15.70;nan;100507.91;4996938;28;20031;-72
2022/06/15 03:40:40;;;;;;;1.88;1.30;;;;;;;15.57;nan;100511.22;4989986;28;20040;-72
2022/06/15 03:43:06;;;;;;;1.92;1.27;;;;;;;15.46;nan;100509.81;4978626;28;20076;-72
2022/06/15 03:45:33;;;;;;;2.30;1.45;;;;;;;15.38;nan;100509.09;4989574;28;20042;-73
2022/06/15 03:47:58;;;;;;;;;;;;;;;15.29;nan;100508.38;4990128;28;20030;-72
2022/06/15 03:50:25;;;;;;;1.87;1.40;;;;;;;15.22;nan;100510.09;4989823;28;19968;-72
2022/06/15 03:52:51;;;;;;;5.15;1.92;;;;;;;15.16;nan;100513.47;4989858;28;20062;-73
2022/06/15 03:55:17;;;;;;;;;;;;;;;15.11;nan;100507.88;4990420;28;20550;-72
2022/06/15 03:57:43;;;;;;;2.97;1.70;;;;;;;15.08;nan;100509.91;4989961;28;19914;-72
2022/06/15 04:00:13;;;;;;;2.42;1.50;;;;;;;15.07;nan;100508.25;4989011;28;20038;-72
2022/06/15 04:02:38;;;;;;;1.83;1.23;;;;;;;15.20;nan;100499.63;4996027;28;20423;-72
2022/06/15 04:05:04;;;;;;;2.25;1.48;;;;;;;15.19;nan;100505.97;4989782;28;20062;-72
2022/06/15 04:10:14;;;;;;;1.75;1.40;;;;;;;15.55;nan;100507.91;4989210;28;20089;-73
2022/06/15 04:12:39;;;;;;;2.90;1.45;;;;;;;15.60;nan;100513.50;4991886;28;20459;-73
2022/06/15 04:15:05;;;;;;;2.45;1.63;;;;;;;15.69;nan;100511.56;4995337;28;20039;-73
2022/06/15 04:17:31;;;;;;;2.40;1.55;;;;;;;15.71;nan;100513.06;5001909;28;20046;-72
2022/06/15 04:22:40;;;;;;;2.00;1.50;;;;;;;15.87;nan;100513.88;4987327;28;20258;-72
2022/06/15 04:25:06;;;;;;;2.10;1.45;;;;;;;15.92;nan;100512.31;4993204;28;20113;-72
2022/06/15 04:27:32;;;;;;;3.28;1.83;;;;;;;16.11;nan;100502.88;4993043;28;20048;-72
2022/06/15 04:29:59;;;;;;;2.90;1.90;;;;;;;16.38;nan;100513.81;4993263;28;20031;-72
2022/06/15 04:32:24;;;;;;;3.85;1.95;;;;;;;16.62;nan;100504.59;4992468;28;20447;-72
2022/06/15 04:34:49;;;;;;;4.97;1.85;;;;;;;16.79;nan;100502.53;4993369;28;20042;-72
2022/06/15 04:37:15;;;;;;;3.30;2.00;;;;;;;17.02;nan;100512.13;5000508;28;20038;-72
2022/06/15 04:39:40;;;;;;;2.95;1.80;;;;;;;17.17;nan;100513.69;4975851;28;20399;-72
2022/06/15 04:42:06;;;;;;;3.80;1.70;;;;;;;17.31;nan;100511.13;4992114;28;20503;-73
2022/06/15 04:44:31;;;;;;;3.92;2.05;;;;;;;17.42;nan;100513.22;4999417;28;20041;-72
2022/06/15 04:46:58;;;;;;;3.03;1.65;;;;;;;17.50;nan;100513.06;4992853;28;20065;-73
2022/06/15 04:49:23;;;;;;;4.82;2.10;;;;;;;17.58;nan;100515.56;4992908;28;20027;-72
2022/06/15 04:51:48;;;;;;;3.20;1.92;;;;;;;17.67;nan;100510.91;4992468;28;20457;-73
2022/06/15 04:54:13;;;;;;;3.35;2.03;;;;;;;17.73;nan;100511.94;4992461;28;20377;-73
2022/06/15 04:56:39;;;;;;;2.60;1.75;;;;;;;17.77;nan;100514.00;4993022;28;20048;-72
2022/06/15 04:59:05;;;;;;;4.38;1.67;;;;;;;17.84;nan;100508.72;4992621;28;20073;-73
2022/06/15 05:01:30;;;;;;;4.85;1.95;;;;;;;17.91;nan;100511.44;4997327;28;20038;-73
2022/06/15 05:03:55;;;;;;;3.28;1.70;;;;;;;17.99;nan;100506.72;5004524;28;20034;-73
2022/06/15 05:06:21;;;;;;;3.42;1.67;;;;;;;18.11;nan;100514.16;5000244;28;20065;-73
2022/06/15 05:08:46;;;;;;;4.00;2.00;;;;;;;18.18;nan;100515.81;4992621;28;20053;-73
2022/06/15 05:11:11;;;;;;;2.28;1.60;;;;;;;18.31;nan;100516.91;4992241;28;20303;-73
2022/06/15 05:13:36;;;;;;;3.20;1.80;;;;;;;18.39;nan;100516.72;4992118;28;20113;-72
2022/06/15 05:16:02;;;;;;;2.70;1.70;;;;;;;18.44;nan;100517.72;4995632;28;20447;-73
2022/06/15 05:18:27;;;;;;;3.03;1.73;;;;;;;18.52;nan;100522.09;4999938;28;20038;-72
2022/06/15 05:20:53;;;;;;;2.83;1.70;;;;;;;18.62;nan;100519.00;4992925;28;20027;-73
2022/06/15 05:23:19;;;;;;;3.05;1.60;;;;;;;18.73;nan;100520.25;4991298;28;20061;-72
2022/06/15 05:25:44;;;;;;;2.72;1.63;;;;;;;18.83;nan;100534.91;4992888;28;20061;-73
2022/06/15 05:28:12;;;;;;;3.58;1.90;;;;;;;18.98;nan;100533.88;4991837;28;20062;-72
2022/06/15 05:30:38;;;;;;;3.53;1.75;;;;;;;19.13;nan;100537.16;4992166;28;20306;-72
2022/06/15 05:33:04;;;;;;;3.08;1.70;;;;;;;19.29;nan;100533.22;4991598;28;20034;-73
2022/06/15 05:35:29;;;;;;;2.55;1.38;;;;;;;19.39;nan;100535.47;4992248;28;20026;-72
2022/06/15 05:37:55;;;;;;;2.13;1.63;;;;;;;19.47;nan;100533.41;4999936;28;20044;-72
2022/06/15 05:40:20;;;;;;;3.97;1.70;;;;;;;19.56;nan;100536.66;4991367;28;20030;-73
2022/06/15 05:42:46;;;;;;;4.00;1.90;;;;;;;19.65;nan;100538.09;4997046;28;20492;-73
2022/06/15 05:45:11;;;;;;;3.00;2.00;;;;;;;19.72;nan;100538.09;4993358;28;20042;-73
2022/06/15 05:47:37;;;;;;;3.45;2.00;;;;;;;19.84;nan;100547.13;4999855;28;20471;-73
2022/06/15 05:50:03;;;;;;;4.97;2.45;;;;;;;20.01;nan;100544.78;4991153;28;20034;-73
2022/06/15 05:52:28;;;;;;;2.90;1.90;;;;;;;20.35;nan;100548.97;4991494;28;20113;-72
2022/06/15 05:54:56;;;;;;;2.65;1.85;;;;;;;20.84;nan;100551.16;4991955;28;20384;-73
2022/06/15 05:57:23;;;;;;;1.83;1.17;;;;;;;21.33;nan;100555.69;4991448;28;20026;-71
2022/06/15 05:59:50;;;;;;;4.50;1.50;;;;;;;21.73;nan;100552.56;4998609;28;20510;-71
2022/06/15 06:02:17;;;;;;;2.42;1.50;;;;;;;22.17;nan;100555.97;4991347;28;20104;-71
2022/06/15 06:04:43;;;;;;;2.25;1.30;;;;;;;22.65;nan;100549.72;4991674;28;20058;-72
2022/06/15 06:07:09;;;;;;;2.90;1.42;;;;;;;23.14;nan;100548.75;4990854;28;20061;-72
2022/06/15 06:09:35;;;;;;;1.83;1.27;;;;;;;23.47;nan;100546.25;4991452;28;20385;-72
2022/06/15 06:12:00;;;;;;;3.08;1.30;;;;;;;23.82;nan;100550.81;4991116;28;20034;-72
2022/06/15 06:14:26;;;;;;;2.15;1.30;;;;;;;24.22;nan;100549.13;4990858;28;20398;-72
2022/06/15 06:16:51;;;;;;;3.13;1.55;;;;;;;24.48;nan;100545.88;5000974;28;20037;-72
2022/06/15 06:19:16;;;;;;;3.05;1.60;;;;;;;24.71;nan;100542.22;4992438;28;20508;-72
2022/06/15 06:21:43;;;;;;;3.05;1.45;;;;;;;25.05;nan;100544.09;4991800;28;20124;-72
2022/06/15 06:24:09;;;;;;;4.05;1.70;;;;;;;25.20;nan;100545.16;4990733;28;20034;-72
2022/06/15 06:26:35;;;;;;;2.95;1.60;;;;;;;25.26;nan;100547.94;4991742;28;20030;-72
2022/06/15 06:29:00;;;;;;;3.65;1.92;;;;;;;25.46;nan;100552.81;4991419;28;20580;-72
2022/06/15 06:31:27;;;;;;;2.40;1.20;;;;;;;25.90;nan;100547.47;4991306;28;20213;-72
2022/06/15 06:33:53;;;;;;;2.30;1.40;;;;;;;26.18;nan;100551.84;4998902;28;20044;-72
2022/06/15 06:36:41;;;;;;;2.67;1.60;;;;;;;26.35;nan;100551.75;4976779;28;20026;-72
2022/06/15 06:39:13;;;;;;;3.55;1.77;;;;;;;26.75;nan;100543.19;4993573;28;20101;-72
2022/06/15 06:41:39;;;;;;;2.37;1.20;;;;;;;27.23;nan;100554.16;4991455;28;20061;-72
2022/06/15 06:44:04;;;;;;;2.22;1.55;;;;;;;27.48;nan;100545.31;4998067;28;20038;-72
2022/06/15 06:46:31;;;;;;;1.88;1.10;;;;;;;27.78;nan;100549.25;4981358;28;20042;-72
2022/06/15 06:48:57;;;;;;;2.42;1.30;;;;;;;27.94;nan;100545.56;4990573;28;20042;-72
2022/06/15 06:51:22;;;;;;;1.70;1.25;;;;;;;28.08;nan;100543.13;4990711;28;20026;-72
2022/06/15 06:53:48;;;;;;;2.23;1.33;;;;;;;28.36;nan;100544.53;4990708;28;20038;-72
2022/06/15 06:56:13;;;;;;;3.17;1.58;;;;;;;28.57;nan;100551.66;4990412;28;20285;-72
2022/06/15 06:58:39;;;;;;;2.85;1.40;;;;;;;28.66;nan;100546.50;4991251;28;20053;-72
2022/06/15 07:01:04;;;;;;;3.22;1.88;;;;;;;28.85;nan;100543.25;4991717;28;20041;-72
2022/06/15 07:03:30;;;;;;;2.25;1.40;;;;;;;29.00;nan;100552.19;4990105;28;20057;-72
2022/06/15 07:06:01;;;;;;;1.75;1.33;;;;;;;29.20;nan;100553.31;4989748;28;20109;-72
2022/06/15 07:08:26;;;;;;;4.15;1.88;;;;;;;29.36;nan;100551.34;4982272;28;20049;-73
2022/06/15 07:10:52;;;;;;;2.45;1.30;;;;;;;29.55;nan;100552.38;4990313;28;20026;-72
2022/06/15 07:13:17;;;;;;;2.45;1.40;;;;;;;29.43;nan;100549.16;4989691;28;20077;-73
2022/06/15 07:15:42;;;;;;;3.37;1.70;;;;;;;29.25;nan;100547.84;4992150;28;20030;-72
2022/06/15 07:18:08;;;;;;;2.73;1.60;;;;;;;29.30;nan;100552.47;4997807;28;20270;-73
2022/06/15 07:20:34;;;;;;;2.67;1.40;;;;;;;29.37;nan;100551.06;4990333;28;20285;-72
2022/06/15 07:22:59;;;;;;;;;;;;;;;29.35;nan;100547.00;4990064;28;20454;-73
2022/06/15 07:25:25;;;;;;;4.07;2.00;;;;;;;29.56;nan;100548.56;4998476;28;19913;-72
2022/06/15 07:27:50;;;;;;;4.13;1.60;;;;;;;29.85;nan;100556.09;4990406;28;20038;-73
2022/06/15 07:30:21;;;;;;;2.38;1.30;;;;;;;30.14;nan;100558.13;4989329;28;20034;-73
2022/06/15 07:32:47;;;;;;;2.60;1.60;;;;;;;30.40;nan;100562.34;4989128;28;20030;-73
2022/06/15 07:35:31;;;;;;;2.45;1.35;;;;;;;30.41;nan;100561.25;4990295;28;20042;-73
2022/06/15 07:37:56;;;;;;;2.67;1.30;;;;;;;30.50;nan;100561.47;4997710;28;20045;-73
2022/06/15 07:40:23;;;;;;;2.13;1.30;;;;;;;30.79;nan;100560.69;4981749;28;20031;-73
2022/06/15 07:42:50;;;;;;;2.45;1.30;;;;;;;31.09;nan;100565.91;4977807;28;20102;-73
2022/06/15 07:45:19;;;;;;;2.88;1.33;;;;;;;30.97;nan;100556.47;4990570;28;20404;-73
2022/06/15 07:50:29;;;;;;;2.13;1.23;;;;;;;30.90;nan;100565.81;4996118;28;20621;-73
2022/06/15 07:52:56;;;;;;;3.58;1.40;;;;;;;30.86;nan;100566.66;4995960;28;20125;-73
2022/06/15 07:55:27;;;;;;;2.60;1.60;;;;;;;31.06;nan;100557.50;4996434;28;20038;-73
2022/06/15 07:57:53;;;;;;;3.13;1.30;;;;;;;31.31;nan;100559.94;4996034;28;20515;-73
2022/06/15 08:00:20;;;;;;;2.00;1.20;;;;;;;31.84;nan;100561.78;4996107;28;20046;-73
2022/06/15 08:02:46;;;;;;;2.95;1.30;;;;;;;32.36;nan;100560.00;4996825;28;20062;-73
2022/06/15 08:05:12;;;;;;;2.70;1.40;;;;;;;32.57;nan;100556.97;4997221;28;20058;-73
2022/06/15 08:07:37;;;;;;;3.80;1.73;;;;;;;32.53;nan;100558.69;4996569;28;20503;-73
2022/06/15 08:10:05;;;;;;;2.50;1.30;;;;;;;32.71;nan;100552.34;4996031;28;20442;-73
2022/06/15 08:12:30;;;;;;;2.75;1.58;;;;;;;33.03;nan;100553.44;4996745;28;20195;-73
2022/06/15 08:15:00;;;;;;;2.13;1.30;;;;;;;33.13;nan;100550.56;4998162;28;20060;-73
2022/06/15 08:17:29;;;;;;;2.92;1.40;;;;;;;33.18;nan;100557.84;5001747;28;20030;-73
2022/06/15 08:20:00;;;;;;;3.22;1.70;;;;;;;33.54;nan;100551.69;5000134;28;20050;-73
2022/06/15 08:22:26;;;;;;;2.28;1.55;;;;;;;33.75;nan;100555.66;4987838;28;20113;-73
2022/06/15 08:24:51;;;;;;;2.80;1.48;;;;;;;34.18;nan;100551.72;4995958;28;20030;-73
2022/06/15 08:27:20;;;;;;;2.28;1.52;;;;;;;34.37;nan;100554.28;4995794;28;20651;-73
2022/06/15 08:29:47;;;;;;;3.38;1.65;;;;;;;34.39;nan;100555.59;4996032;28;20038;-73
2022/06/15 08:32:14;;;;;;;2.85;1.60;;;;;;;34.54;nan;100554.44;4995066;28;20110;-73
2022/06/15 08:34:40;;;;;;;3.22;1.50;;;;;;;34.84;nan;100554.78;4995938;28;20500;-74
2022/06/15 08:37:08;;;;;;;2.60;1.50;;;;;;;34.78;nan;100556.88;5003899;28;20038;-73
2022/06/15 08:39:35;;;;;;;3.20;1.55;;;;;;;34.98;nan;100555.53;4995601;28;20034;-73
2022/06/15 08:42:13;;;;;;;3.22;1.77;;;;;;;34.89;nan;100551.91;4995889;28;20034;-73
2022/06/15 08:45:15;;;;;;;3.72;1.90;;;;;;;35.26;nan;100545.16;4995659;28;20403;-73
2022/06/15 08:47:53;;;;;;;2.70;1.60;;;;;;;35.60;nan;100538.19;4996148;28;20104;-73
2022/06/15 08:50:56;;;;;;;2.95;1.65;;;;;;;36.02;nan;100540.50;5004004;28;20031;-73
2022/06/15 08:53:43;;;;;;;2.58;1.40;;;;;;;36.77;nan;100541.13;4995900;28;20038;-73
2022/06/15 08:56:14;;;;;;;3.45;1.40;;;;;;;37.05;nan;100541.53;4995668;28;20117;-73
2022/06/15 08:58:50;;;;;;;;;;;;;;;37.30;nan;100542.56;4993951;28;20037;-73
2022/06/15 09:01:29;;;;;;;5.07;1.40;;;;;;;37.77;nan;100542.50;4993203;28;19920;-73
2022/06/15 09:04:12;;;;;;;2.80;1.60;;;;;;;37.90;nan;100546.16;4992455;28;20499;-74
2022/06/15 09:06:44;;;;;;;;;;;;;;;37.95;nan;100547.88;4961700;28;20498;-73
2022/06/15 09:09:33;;;;;;;3.38;1.80;;;;;;;37.94;nan;100546.28;4992993;28;20351;-74
2022/06/15 09:15:17;;;;;;;2.55;1.52;;;;;;;38.01;nan;100543.81;4994735;28;20407;-74
2022/06/15 09:17:44;;;;;;;2.38;1.60;;;;;;;38.42;nan;100542.94;5001380;28;20034;-74
2022/06/15 09:20:16;;;;;;;4.80;1.50;;;;;;;38.69;nan;100542.72;4974711;28;20053;-74
2022/06/15 09:22:51;;;;;;;3.58;1.50;;;;;;;39.13;nan;100548.59;4992542;28;20056;-73
2022/06/15 09:25:26;;;;;;;3.40;1.50;;;;;;;39.42;nan;100545.59;4975225;28;20038;-74
2022/06/15 09:28:08;;;;;;;2.72;1.42;;;;;;;40.32;nan;100543.59;4992904;28;20041;-73
2022/06/15 09:30:39;;;;;;;2.25;1.20;;;;;;;41.14;nan;100545.00;4997132;28;20475;-74
2022/06/15 09:33:13;;;;;;;;;;;;;;;41.96;nan;100548.88;4976901;28;20061;-74
2022/06/15 09:35:52;;;;;;;3.75;1.52;;;;;;;42.21;nan;100537.47;4992065;28;20000;-74
2022/06/15 09:38:19;;;;;;;2.15;1.27;;;;;;;42.02;nan;100532.72;4999450;28;20041;-74
2022/06/15 09:40:55;;;;;;;2.95;1.60;;;;;;;41.92;nan;100542.41;4991990;28;20278;-74
2022/06/15 09:43:38;;;;;;;3.13;1.60;;;;;;;42.33;nan;100545.63;4998509;28;20066;-74
2022/06/15 09:46:46;;;;;;;2.13;1.40;;;;;;;42.56;nan;100540.16;4991190;28;20549;-74
2022/06/15 09:49:21;;;;;;;2.67;1.80;;;;;;;42.81;nan;100543.41;5000056;28;20080;-74
2022/06/15 09:52:10;;;;;;;1.92;1.30;;;;;;;43.31;nan;100537.06;4991783;28;20085;-74
2022/06/15 09:54:47;;;;;;;3.33;1.50;;;;;;;43.73;nan;100536.91;4991110;28;20435;-74
2022/06/15 09:57:13;;;;;;;4.03;1.70;;;;;;;42.91;nan;100538.38;4974068;28;20041;-74
2022/06/15 09:59:39;;;;;;;2.45;1.55;;;;;;;42.12;nan;100534.94;4992157;28;20403;-74
2022/06/15 10:02:14;;;;;;;3.08;1.88;;;;;;;41.94;nan;100533.72;4992246;28;20034;-74
2022/06/15 10:04:39;;;;;;;1.70;1.30;;;;;;;41.67;nan;100530.78;4991707;28;20478;-73
2022/06/15 10:07:09;;;;;;;;;;;;;;;42.07;nan;100531.63;4994100;28;20122;-74
2022/06/15 10:09:41;;;;;;;2.63;1.60;;;;;;;42.89;nan;100532.41;4998330;28;19924;-73
2022/06/15 10:15:16;;;;;;;1.75;1.10;;;;;;;43.80;nan;100536.19;4994155;28;20405;-73
2022/06/15 10:17:47;;;;;;;3.92;1.45;;;;;;;44.18;nan;100539.88;5004401;28;20486;-74
2022/06/15 10:20:29;;;;;;;3.15;1.67;;;;;;;44.60;nan;100541.50;4990844;28;20041;-74
2022/06/15 10:22:56;;;;;;;2.40;1.42;;;;;;;44.52;nan;100537.84;4989975;28;20513;-74
2022/06/15 10:25:23;;;;;;;2.53;1.77;;;;;;;44.56;nan;100532.31;4983526;28;20121;-74
2022/06/15 10:27:51;;;;;;;2.50;1.70;;;;;;;44.86;nan;100527.44;4991349;28;20607;-74
2022/06/15 10:30:20;;;;;;;3.08;1.50;;;;;;;45.28;nan;100523.38;4990365;28;20039;-74
2022/06/15 10:33:01;;;;;;;2.92;1.40;;;;;;;46.07;nan;100528.59;4990656;28;20065;-74
2022/06/15 10:35:30;;;;;;;2.35;1.30;;;;;;;46.53;nan;100527.91;4991351;28;20034;-74
2022/06/15 10:37:59;;;;;;;3.10;1.45;;;;;;;46.63;nan;100520.72;4998659;28;20365;-74
2022/06/15 10:40:30;;;;;;;2.88;1.33;;;;;;;46.29;nan;100518.25;4990747;28;20041;-74
2022/06/15 10:43:00;;;;;;;3.75;1.75;;;;;;;45.55;nan;100523.13;4997373;28;20049;-74
2022/06/15 10:45:42;;;;;;;3.60;1.65;;;;;;;45.35;nan;100515.03;4987808;28;20083;-74
2022/06/15 10:48:22;;;;;;;3.75;1.50;;;;;;;45.77;nan;100510.91;4993517;28;20117;-74
2022/06/15 10:50:58;;;;;;;4.55;1.60;;;;;;;45.57;nan;100512.38;4991448;28;20308;-74
2022/06/15 10:53:34;;;;;;;2.72;1.50;;;;;;;45.48;nan;100511.91;4991104;28;20026;-74
2022/06/15 11:02:07;;;;;;;3.70;1.52;;;;;;;46.43;nan;100503.53;4984484;28;20037;-74
2022/06/15 11:04:36;;;;;;;2.03;1.33;;;;;;;46.78;nan;100505.56;4990106;28;20404;-74
2022/06/15 11:07:23;;;;;;;3.42;1.30;;;;;;;46.95;nan;100503.97;4990067;28;20108;-74
2022/06/15 11:09:54;;;;;;;2.38;1.33;;;;;;;47.10;nan;100501.97;4983366;28;20042;-74
2022/06/15 11:12:24;;;;;;;2.85;1.50;;;;;;;47.51;nan;100501.47;4988752;28;20034;-74
2022/06/15 11:14:56;;;;;;;3.60;1.42;;;;;;;47.62;nan;100510.66;4992186;28;20045;-74
2022/06/15 11:20:48;;;;;;;2.40;1.15;;;;;;;48.12;nan;100496.41;4992151;28;20121;-74
2022/06/15 11:23:23;;;;;;;2.42;1.50;;;;;;;48.38;nan;100497.06;4986623;28;20038;-74
2022/06/15 11:26:51;;;;;;;1.60;1.08;;;;;;;48.85;nan;100489.06;4990283;28;20105;-74
2022/06/15 11:28:50;;;;;;;2.10;1.15;;;;;;;49.26;nan;100424.44;4985237;28;20500;-74
2022/06/15 11:31:17;;;;;;;1.98;1.20;;;;;;;49.16;nan;100421.78;4972471;28;20110;-74
2022/06/15 11:33:50;;;;;;;2.25;1.30;;;;;;;48.31;nan;100418.56;4989856;28;20030;-74
2022/06/15 11:36:28;;;;;;;2.38;1.50;;;;;;;48.15;nan;100431.06;4991622;28;20026;-74
2022/06/15 11:39:03;;;;;;;2.08;1.10;;;;;;;48.33;nan;100487.06;4994027;28;20584;-75
2022/06/15 11:41:35;;;;;;;2.70;1.20;;;;;;;48.68;nan;100479.63;4990079;28;20026;-74
2022/06/15 11:44:06;;;;;;;2.22;1.33;;;;;;;49.15;nan;100477.13;4996786;28;20112;-74
2022/06/15 11:46:49;;;;;;;2.25;1.20;;;;;;;49.11;nan;100482.81;4996304;28;20037;-74
2022/06/15 11:49:27;;;;;;;2.00;1.25;;;;;;;49.07;nan;100476.44;4989861;28;20041;-74
2022/06/15 11:52:07;;;;;;;3.15;1.50;;;;;;;48.91;nan;100476.16;4989665;28;20094;-74
2022/06/15 11:55:07;;;;;;;2.38;1.40;;;;;;;48.02;nan;100472.03;4989161;28;20041;-74
2022/06/15 11:57:53;;;;;;;2.67;1.40;;;;;;;47.58;nan;100473.44;4965201;28;20042;-75
2022/06/15 12:00:34;;;;;;;2.92;1.45;;;;;;;47.36;nan;100472.69;4988740;28;20037;-75
2022/06/15 12:03:22;;;;;;;3.35;1.20;;;;;;;47.31;nan;100462.69;4989241;28;20476;-75
2022/06/15 12:06:06;;;;;;;2.53;1.40;;;;;;;47.78;nan;100459.75;4989796;28;20106;-74
2022/06/15 12:08:50;;;;;;;3.45;1.30;;;;;;;48.01;nan;100459.22;4997519;28;20062;-74
2022/06/15 12:14:53;;;;;;;3.60;1.42;;;;;;;47.48;nan;100463.88;4989026;28;20092;-74
2022/06/15 12:17:29;;;;;;;1.83;1.02;;;;;;;48.40;nan;100458.16;4997993;28;20495;-74
2022/06/15 12:20:25;;;;;;;2.00;1.13;;;;;;;48.86;nan;100457.75;4989383;28;20026;-74
2022/06/15 12:23:12;;;;;;;1.50;1.00;;;;;;;48.47;nan;100469.34;4989146;28;20093;-74
2022/06/15 12:26:07;;;;;;;2.10;1.20;;;;;;;47.61;nan;100461.44;4989779;28;20042;-74
2022/06/15 12:28:50;;;;;;;2.40;1.30;;;;;;;46.31;nan;100451.56;4982078;28;20042;-74